createdAt,value
2022-07-25T00:02:05.513Z,21.00
2022-07-25T00:04:44.535Z,21.00
2022-07-25T00:07:32.749Z,21.00
2022-07-25T00:10:13.838Z,21.10
2022-07-25T00:12:42.151Z,21.00
2022-07-25T00:18:40.682Z,21.10
2022-07-25T00:21:41.889Z,21.00
2022-07-25T00:24:28.852Z,21.10
2022-07-25T00:27:02.853Z,21.10
2022-07-25T00:29:33.566Z,21.00
2022-07-25T00:32:14.130Z,21.00
2022-07-25T00:34:59.946Z,20.90
2022-07-25T00:37:36.755Z,20.80
2022-07-25T00:40:05.755Z,20.80
2022-07-25T00:42:38.695Z,20.80
2022-07-25T00:45:21.487Z,20.90
2022-07-25T00:47:49.992Z,20.70
2022-07-25T00:50:19.933Z,20.70
2022-07-25T00:52:48.752Z,20.70
2022-07-25T00:55:17.020Z,20.80
2022-07-25T00:58:04.949Z,20.70
2022-07-25T01:00:45.952Z,20.50
2022-07-25T01:03:43.393Z,20.60
2022-07-25T01:06:29.108Z,20.70
2022-07-25T01:08:58.195Z,20.50
2022-07-25T01:11:29.862Z,20.50
2022-07-25T01:13:59.161Z,20.50
2022-07-25T01:16:27.272Z,20.50
2022-07-25T01:18:55.219Z,20.60
2022-07-25T01:21:25.774Z,20.40
2022-07-25T01:23:53.817Z,20.50
2022-07-25T01:26:21.744Z,20.30
2022-07-25T01:28:49.831Z,20.50
2022-07-25T01:31:17.891Z,20.30
2022-07-25T01:33:46.238Z,20.30
2022-07-25T01:36:14.167Z,20.30
2022-07-25T01:38:43.484Z,20.30
2022-07-25T01:41:11.425Z,20.20
2022-07-25T01:43:39.373Z,20.20
2022-07-25T01:46:07.663Z,20.20
2022-07-25T01:48:35.698Z,20.30
2022-07-25T01:51:03.596Z,20.20
2022-07-25T01:53:32.291Z,20.20
2022-07-25T01:56:02.831Z,20.20
2022-07-25T01:58:31.375Z,20.20
2022-07-25T02:00:59.315Z,20.10
2022-07-25T02:03:33.131Z,20.10
2022-07-25T02:06:02.819Z,20.00
2022-07-25T02:08:31.233Z,20.00
2022-07-25T02:11:01.176Z,19.90
2022-07-25T02:13:29.138Z,19.90
2022-07-25T02:15:57.307Z,19.90
2022-07-25T02:18:25.150Z,19.90
2022-07-25T02:20:53.005Z,19.90
2022-07-25T02:23:20.902Z,19.80
2022-07-25T02:34:48.275Z,19.70
2022-07-25T02:37:16.124Z,19.60
2022-07-25T02:39:44.011Z,19.60
2022-07-25T02:42:11.844Z,19.60
2022-07-25T02:44:39.690Z,19.60
2022-07-25T02:47:07.635Z,19.60
2022-07-25T02:49:35.619Z,19.60
2022-07-25T02:52:05.262Z,19.60
2022-07-25T02:54:33.116Z,19.60
2022-07-25T02:57:00.986Z,19.50
2022-07-25T02:59:32.409Z,19.50
2022-07-25T03:02:00.540Z,19.50
2022-07-25T03:04:28.488Z,19.50
2022-07-25T03:06:56.414Z,19.60
2022-07-25T03:09:25.695Z,19.50
2022-07-25T03:11:53.770Z,19.40
2022-07-25T03:14:21.591Z,19.40
2022-07-25T03:16:49.465Z,19.40
2022-07-25T03:19:17.588Z,19.40
2022-07-25T03:21:46.080Z,19.30
2022-07-25T03:24:13.952Z,19.40
2022-07-25T03:26:43.264Z,19.30
2022-07-25T03:29:11.153Z,19.30
2022-07-25T03:31:39.867Z,19.30
2022-07-25T03:34:08.298Z,19.20
2022-07-25T03:36:36.612Z,19.20
2022-07-25T03:39:05.464Z,19.20
2022-07-25T03:41:34.059Z,19.20
2022-07-25T03:44:03.709Z,19.20
2022-07-25T03:46:31.974Z,19.10
2022-07-25T03:49:00.015Z,19.10
2022-07-25T03:51:27.913Z,19.10
2022-07-25T03:54:05.273Z,19.10
2022-07-25T03:56:43.452Z,19.20
2022-07-25T03:59:15.840Z,19.10
2022-07-25T04:01:44.853Z,19.00
2022-07-25T04:04:13.317Z,19.10
2022-07-25T04:06:42.064Z,19.10
2022-07-25T04:09:11.371Z,19.10
2022-07-25T04:11:39.662Z,19.00
2022-07-25T04:14:08.302Z,19.00
2022-07-25T04:16:37.755Z,19.00
2022-07-25T04:19:08.695Z,19.00
2022-07-25T04:21:36.813Z,19.00
2022-07-25T04:24:05.147Z,19.00
2022-07-25T04:26:33.443Z,19.00
2022-07-25T04:29:03.474Z,19.10
2022-07-25T04:31:31.439Z,19.10
2022-07-25T04:34:01.342Z,19.10
2022-07-25T04:36:29.823Z,19.10
2022-07-25T04:38:57.693Z,19.10
2022-07-25T04:41:25.766Z,19.10
2022-07-25T04:43:54.727Z,19.10
2022-07-25T04:46:23.939Z,19.10
2022-07-25T04:48:52.966Z,19.10
2022-07-25T04:51:22.373Z,19.10
2022-07-25T04:53:50.321Z,19.10
2022-07-25T04:56:18.251Z,19.20
2022-07-25T04:58:46.220Z,19.20
2022-07-25T05:01:14.196Z,19.40
2022-07-25T05:03:50.303Z,19.60
2022-07-25T05:06:18.788Z,20.00
2022-07-25T05:08:48.187Z,20.50
2022-07-25T05:11:16.178Z,21.00
2022-07-25T05:13:47.156Z,21.50
2022-07-25T05:16:15.433Z,22.00
2022-07-25T05:18:43.550Z,22.50
2022-07-25T05:21:12.488Z,23.10
2022-07-25T05:23:40.601Z,23.50
2022-07-25T05:26:09.862Z,24.00
2022-07-25T05:28:37.795Z,24.40
2022-07-25T05:31:05.957Z,24.80
2022-07-25T05:33:35.153Z,25.20
2022-07-25T05:36:05.135Z,25.60
2022-07-25T05:38:35.739Z,26.10
2022-07-25T05:41:16.731Z,26.40
2022-07-25T05:43:46.979Z,27.00
2022-07-25T05:46:17.757Z,27.40
2022-07-25T05:48:46.461Z,27.80
2022-07-25T05:51:14.408Z,28.30
2022-07-25T05:53:42.763Z,28.40
2022-07-25T05:56:10.700Z,28.80
2022-07-25T05:58:40.911Z,29.00
2022-07-25T06:01:09.114Z,29.40
2022-07-25T06:03:37.001Z,29.80
2022-07-25T06:06:05.205Z,30.20
2022-07-25T06:08:33.867Z,30.60
2022-07-25T06:11:03.947Z,31.00
2022-07-25T06:13:32.896Z,31.40
2022-07-25T06:16:04.131Z,31.80
2022-07-25T06:18:32.130Z,32.30
2022-07-25T06:21:00.408Z,32.80
2022-07-25T06:23:28.477Z,33.30
2022-07-25T06:25:57.180Z,33.70
2022-07-25T06:28:25.154Z,34.20
2022-07-25T06:30:53.145Z,34.60
2022-07-25T06:33:22.734Z,35.00
2022-07-25T06:35:50.637Z,35.50
2022-07-25T06:38:18.576Z,36.00
2022-07-25T06:40:46.610Z,36.30
2022-07-25T06:43:14.803Z,36.70
2022-07-25T06:45:47.942Z,37.20
2022-07-25T06:48:16.078Z,37.70
2022-07-25T06:50:45.724Z,38.00
2022-07-25T06:53:13.763Z,38.50
2022-07-25T06:55:41.703Z,39.00
2022-07-25T06:58:10.203Z,39.40
2022-07-25T07:00:45.125Z,39.70
2022-07-25T07:03:13.096Z,40.00
2022-07-25T07:05:43.241Z,40.50
2022-07-25T07:08:14.103Z,40.90
2022-07-25T07:10:42.665Z,41.40
2022-07-25T07:13:12.719Z,41.90
2022-07-25T07:15:49.125Z,42.20
2022-07-25T07:18:17.596Z,42.60
2022-07-25T07:20:45.624Z,43.00
2022-07-25T07:23:17.097Z,43.40
2022-07-25T07:25:47.097Z,43.80
2022-07-25T07:28:15.990Z,44.30
2022-07-25T07:31:15.607Z,44.70
2022-07-25T07:33:33.550Z,44.90
2022-07-25T07:36:01.849Z,44.90
2022-07-25T07:38:31.176Z,45.40
2022-07-25T07:40:59.102Z,45.90
2022-07-25T07:43:30.026Z,46.10
2022-07-25T07:46:00.606Z,46.40
2022-07-25T07:48:29.207Z,46.50
2022-07-25T07:50:57.282Z,46.90
2022-07-25T07:53:45.737Z,47.10
2022-07-25T07:56:14.205Z,47.40
2022-07-25T07:58:42.165Z,47.40
2022-07-25T08:01:11.179Z,47.60
2022-07-25T08:03:39.293Z,48.00
2022-07-25T08:06:07.697Z,48.30
2022-07-25T08:08:35.696Z,48.60
2022-07-25T08:11:03.670Z,48.90
2022-07-25T08:13:34.200Z,49.20
2022-07-25T08:16:04.339Z,49.50
2022-07-25T08:18:33.717Z,49.90
2022-07-25T08:21:05.448Z,50.10
2022-07-25T08:23:34.655Z,50.50
2022-07-25T08:26:04.041Z,50.40
2022-07-25T08:28:33.525Z,50.40
2022-07-25T08:31:01.874Z,50.80
2022-07-25T08:33:29.954Z,50.60
2022-07-25T08:36:01.492Z,51.00
2022-07-25T08:38:30.059Z,50.90
2022-07-25T08:40:59.677Z,51.10
2022-07-25T08:43:29.220Z,51.30
2022-07-25T08:46:01.114Z,51.10
2022-07-25T08:48:29.695Z,51.20
2022-07-25T08:50:58.196Z,51.50
2022-07-25T08:53:33.302Z,51.30
2022-07-25T08:56:06.654Z,51.70
2022-07-25T08:58:38.792Z,52.10
2022-07-25T09:01:08.231Z,52.20
2022-07-25T09:03:36.614Z,52.00
2022-07-25T09:06:15.713Z,52.20
2022-07-25T09:08:52.900Z,52.50
2022-07-25T09:11:32.186Z,52.20
2022-07-25T09:14:01.925Z,50.30
2022-07-25T09:16:40.154Z,51.00
2022-07-25T09:19:13.188Z,50.40
2022-07-25T09:21:42.317Z,49.80
2022-07-25T09:24:12.735Z,50.20
2022-07-25T09:26:48.683Z,49.80
2022-07-25T09:29:22.372Z,49.40
2022-07-25T09:31:52.743Z,48.60
2022-07-25T09:34:36.290Z,48.10
2022-07-25T09:37:06.370Z,48.20
2022-07-25T09:39:35.917Z,47.80
2022-07-25T09:42:14.954Z,47.40
2022-07-25T09:44:42.959Z,46.70
2022-07-25T09:47:16.407Z,47.00
2022-07-25T09:49:47.435Z,47.30
2022-07-25T09:52:17.245Z,47.60
2022-07-25T09:54:45.467Z,47.80
2022-07-25T09:57:13.446Z,48.00
